createdAt,value
2019-02-26T00:02:02.539Z,96102.46
2019-02-26T00:04:27.318Z,96101.06
2019-02-26T00:06:54.131Z,96096.65
2019-02-26T00:09:22.377Z,96094.48
2019-02-26T00:11:44.730Z,96092.91
2019-02-26T00:14:13.330Z,96090.66
2019-02-26T00:16:39.766Z,96090.77
2019-02-26T00:19:04.883Z,96085.02
2019-02-26T00:21:29.326Z,96076.02
2019-02-26T00:23:54.744Z,96074.38
2019-02-26T00:26:22.390Z,96075.29
2019-02-26T00:28:46.742Z,96076.62
2019-02-26T00:31:12.781Z,96067.30
2019-02-26T00:33:38.786Z,96060.23
2019-02-26T00:36:06.648Z,96053.58
2019-02-26T00:38:30.775Z,96059.00
2019-02-26T00:40:57.761Z,96048.19
2019-02-26T00:43:25.398Z,96048.78
2019-02-26T00:45:51.062Z,96048.36
2019-02-26T00:48:14.766Z,96054.10
2019-02-26T00:50:40.764Z,96050.67
2019-02-26T00:53:06.758Z,96040.70
2019-02-26T00:55:34.729Z,96039.05
2019-02-26T00:57:59.171Z,96029.31
2019-02-26T01:00:26.830Z,96025.33
2019-02-26T01:02:50.752Z,96022.73
2019-02-26T01:05:16.756Z,96021.33
2019-02-26T01:07:44.773Z,96004.39
2019-02-26T01:10:08.744Z,96005.54
2019-02-26T01:12:35.708Z,95999.73
2019-02-26T01:15:02.586Z,95987.75
2019-02-26T01:17:26.762Z,95980.34
2019-02-26T01:19:54.289Z,95974.10
2019-02-26T01:22:18.759Z,95970.11
2019-02-26T01:24:44.759Z,95966.12
2019-02-26T01:27:10.755Z,95962.80
2019-02-26T01:29:36.751Z,95974.28
2019-02-26T01:32:02.845Z,95965.39
2019-02-26T01:34:28.841Z,95961.39
2019-02-26T01:36:54.853Z,95970.78
2019-02-26T01:39:22.854Z,95971.37
2019-02-26T01:41:47.925Z,95967.14
2019-02-26T01:44:12.849Z,95962.73
2019-02-26T01:46:39.358Z,95956.56
2019-02-26T01:49:04.850Z,95961.64
2019-02-26T01:51:30.847Z,95965.80
2019-02-26T01:53:56.844Z,95964.05
2019-02-26T01:56:22.863Z,95961.89
2019-02-26T01:58:56.418Z,95960.38
2019-02-26T02:01:16.628Z,95959.47
2019-02-26T02:03:40.860Z,95951.73
2019-02-26T02:06:10.634Z,95949.00
2019-02-26T02:08:32.859Z,95942.84
2019-02-26T02:10:59.850Z,95935.52
2019-02-26T02:13:28.348Z,95924.11
2019-02-26T02:15:50.862Z,95922.22
2019-02-26T02:18:18.224Z,95926.80
2019-02-26T02:20:42.855Z,95922.64
2019-02-26T02:23:08.855Z,95924.39
2019-02-26T02:25:36.168Z,95914.77
2019-02-26T02:28:02.691Z,95906.98
2019-02-26T02:30:30.919Z,95905.77
2019-02-26T02:32:56.846Z,95903.70
2019-02-26T02:35:19.432Z,95898.87
2019-02-26T02:37:44.866Z,95896.14
2019-02-26T02:40:10.863Z,95893.47
2019-02-26T02:42:37.727Z,95887.73
2019-02-26T02:45:05.079Z,95889.98
2019-02-26T02:47:31.637Z,95891.80
2019-02-26T02:49:54.861Z,95891.97
2019-02-26T02:52:20.855Z,95900.44
2019-02-26T02:54:47.522Z,95904.33
2019-02-26T02:57:12.887Z,95901.84
2019-02-26T02:59:41.692Z,95895.79
2019-02-26T03:02:04.891Z,95890.39
2019-02-26T03:04:33.956Z,95897.78
2019-02-26T03:06:58.654Z,95893.97
2019-02-26T03:09:22.880Z,95900.69
2019-02-26T03:11:49.572Z,95901.35
2019-02-26T03:14:16.534Z,95900.94
2019-02-26T03:16:42.460Z,95896.14
2019-02-26T03:19:07.728Z,95892.95
2019-02-26T03:21:32.867Z,95893.19
2019-02-26T03:24:01.045Z,95892.70
2019-02-26T03:26:25.919Z,95889.48
2019-02-26T03:28:52.816Z,95886.72
2019-02-26T03:31:16.866Z,95887.14
2019-02-26T03:33:42.864Z,95889.48
2019-02-26T03:36:11.190Z,95891.72
2019-02-26T03:38:34.891Z,95899.35
2019-02-26T03:41:03.286Z,95891.13
2019-02-26T03:43:28.679Z,95893.47
2019-02-26T03:45:52.885Z,95898.20
2019-02-26T03:48:21.940Z,95896.87
2019-02-26T03:50:47.940Z,95903.35
2019-02-26T03:53:13.945Z,95908.91
2019-02-26T03:55:42.023Z,95905.77
2019-02-26T03:58:05.962Z,95908.00
2019-02-26T04:00:34.492Z,95904.92
2019-02-26T04:02:57.969Z,95902.69
2019-02-26T04:05:23.974Z,95908.18
2019-02-26T04:07:54.994Z,95906.36
2019-02-26T04:10:15.984Z,95900.94
2019-02-26T04:12:42.931Z,95898.87
2019-02-26T04:15:07.972Z,95885.14
2019-02-26T04:17:36.970Z,95880.98
2019-02-26T04:20:02.670Z,95874.74
2019-02-26T04:22:26.497Z,95872.75
2019-02-26T04:24:53.046Z,95874.01
2019-02-26T04:27:17.967Z,95870.09
2019-02-26T04:29:46.049Z,95871.77
2019-02-26T04:32:12.099Z,95870.09
2019-02-26T04:34:35.960Z,95872.27
2019-02-26T04:37:04.660Z,95869.29
2019-02-26T04:39:27.976Z,95862.87
2019-02-26T04:41:53.972Z,95856.38
2019-02-26T04:44:22.623Z,95847.41
2019-02-26T04:46:45.972Z,95843.06
2019-02-26T04:49:11.994Z,95833.27
2019-02-26T04:51:41.507Z,95824.06
2019-02-26T04:54:03.998Z,95825.39
2019-02-26T04:56:33.466Z,95829.88
2019-02-26T04:58:56.002Z,95826.80
2019-02-26T05:01:22.003Z,95825.88
2019-02-26T05:03:48.019Z,95801.52
2019-02-26T05:06:14.013Z,95797.03
2019-02-26T05:08:40.717Z,95799.70
2019-02-26T05:11:06.003Z,95796.69
2019-02-26T05:13:32.819Z,95782.89
2019-02-26T05:15:58.019Z,95780.55
2019-02-26T05:18:25.962Z,95792.52
2019-02-26T05:20:50.046Z,95782.40
2019-02-26T05:23:16.040Z,95783.63
2019-02-26T05:25:43.009Z,95772.56
2019-02-26T05:28:10.059Z,95785.87
2019-02-26T05:30:34.079Z,95789.47
2019-02-26T05:33:02.348Z,95790.69
2019-02-26T05:35:26.072Z,95797.21
2019-02-26T05:37:52.083Z,95801.80
2019-02-26T05:40:21.436Z,95807.62
2019-02-26T05:42:44.099Z,95803.94
2019-02-26T05:45:10.097Z,95803.94
2019-02-26T05:47:36.149Z,95798.12
2019-02-26T05:50:03.873Z,95793.89
2019-02-26T05:52:30.642Z,95791.66
2019-02-26T05:54:54.225Z,95791.34
2019-02-26T05:57:30.863Z,95794.08
2019-02-26T05:59:46.275Z,95793.23
2019-02-26T06:02:14.176Z,95779.86
2019-02-26T06:04:40.798Z,95786.83
2019-02-26T06:07:04.705Z,95818.33
2019-02-26T06:09:33.008Z,95819.53
2019-02-26T06:11:56.297Z,95803.44
2019-02-26T06:14:24.667Z,95795.64
2019-02-26T06:16:50.612Z,95795.28
2019-02-26T06:19:15.805Z,95807.25
2019-02-26T06:21:43.961Z,95803.19
2019-02-26T06:24:06.389Z,95803.85
2019-02-26T06:26:33.366Z,95786.59
2019-02-26T06:28:58.388Z,95778.95
2019-02-26T06:31:24.951Z,95777.68
2019-02-26T06:33:50.683Z,95773.33
2019-02-26T06:36:18.395Z,95788.27
2019-02-26T06:38:42.429Z,95773.52
2019-02-26T06:41:08.485Z,95787.23
2019-02-26T06:43:37.466Z,95773.75
2019-02-26T06:46:02.560Z,95769.16
2019-02-26T06:48:27.564Z,95766.63
2019-02-26T06:50:52.510Z,95763.73
2019-02-26T06:53:20.945Z,95751.21
2019-02-26T06:55:44.525Z,95762.63
2019-02-26T06:58:10.535Z,95753.69
2019-02-26T07:00:36.602Z,95757.01
2019-02-26T07:03:02.808Z,95761.49
2019-02-26T07:05:28.642Z,95756.15
2019-02-26T07:07:56.953Z,95744.02
2019-02-26T07:10:24.327Z,95752.58
2019-02-26T07:12:48.752Z,95758.81
2019-02-26T07:15:12.669Z,95755.44
2019-02-26T07:17:40.683Z,95758.58
2019-02-26T07:20:04.694Z,95752.59
2019-02-26T07:22:30.790Z,95750.77
2019-02-26T07:24:56.798Z,95757.84
2019-02-26T07:27:22.794Z,95748.42
2019-02-26T07:29:52.198Z,95750.67
2019-02-26T07:32:17.190Z,95743.34
2019-02-26T07:34:42.799Z,95753.38
2019-02-26T07:37:08.819Z,95735.90
2019-02-26T07:39:32.888Z,95734.38
2019-02-26T07:41:58.889Z,95725.96
2019-02-26T07:44:26.470Z,95720.03
2019-02-26T07:46:50.889Z,95697.29
2019-02-26T07:49:16.894Z,95692.22
2019-02-26T07:51:43.097Z,95686.17
2019-02-26T07:54:09.007Z,95688.91
2019-02-26T07:56:35.006Z,95666.63
2019-02-26T07:59:03.801Z,95672.52
2019-02-26T08:01:27.032Z,95676.86
2019-02-26T08:03:53.330Z,95684.11
2019-02-26T08:06:19.028Z,95682.86
2019-02-26T08:08:48.464Z,95684.92
2019-02-26T08:11:11.032Z,95691.57
2019-02-26T08:13:37.028Z,95684.61
2019-02-26T08:16:04.998Z,95684.61
2019-02-26T08:18:29.035Z,95689.82
2019-02-26T08:20:57.470Z,95684.84
2019-02-26T08:23:21.677Z,95695.56
2019-02-26T08:25:47.213Z,95689.33
2019-02-26T08:28:15.327Z,95688.00
2019-02-26T08:30:42.300Z,95667.96
2019-02-26T08:33:07.400Z,95671.95
2019-02-26T08:35:31.401Z,95667.36
2019-02-26T08:37:57.430Z,95670.33
2019-02-26T08:40:23.464Z,95671.41
2019-02-26T08:42:49.466Z,95669.84
2019-02-26T08:45:17.578Z,95659.56
2019-02-26T08:47:41.626Z,95653.45
2019-02-26T08:50:10.108Z,95655.92
2019-02-26T08:52:33.646Z,95648.13
2019-02-26T08:54:59.638Z,95641.59
2019-02-26T08:57:25.647Z,95641.40
2019-02-26T08:59:52.298Z,95630.41
2019-02-26T09:02:17.741Z,95619.27
2019-02-26T09:04:45.160Z,95619.69
2019-02-26T09:07:09.750Z,95616.01
2019-02-26T09:09:35.753Z,95605.55
2019-02-26T09:12:03.217Z,95618.02
2019-02-26T09:14:32.170Z,95615.28
2019-02-26T09:16:54.945Z,95607.72
2019-02-26T09:19:19.928Z,95596.95
2019-02-26T09:21:47.777Z,95591.82
2019-02-26T09:26:57.550Z,95580.34
2019-02-26T09:29:22.294Z,95584.98
2019-02-26T09:31:50.985Z,95578.02
2019-02-26T09:34:16.988Z,95588.48
2019-02-26T09:39:32.028Z,95589.52
2019-02-26T09:41:57.582Z,95588.48
2019-02-26T09:44:23.861Z,95570.16
2019-02-26T09:46:48.214Z,95574.15
2019-02-26T09:49:14.212Z,95574.68
2019-02-26T09:51:40.207Z,95557.19
2019-02-26T09:54:06.209Z,95567.42
2019-02-26T09:56:32.338Z,95566.51
2019-02-26T09:58:58.349Z,95558.18
2019-02-26T10:01:24.344Z,95549.52
2019-02-26T10:03:50.343Z,95546.36
2019-02-26T10:06:18.608Z,95536.70
2019-02-26T10:08:43.902Z,95539.28
2019-02-26T10:11:08.458Z,95534.05
2019-02-26T10:13:34.517Z,95508.34
2019-02-26T10:16:02.001Z,95502.34
2019-02-26T10:18:27.914Z,95488.61
2019-02-26T10:20:54.606Z,95499.67
2019-02-26T10:23:19.395Z,95495.98
2019-02-26T10:25:45.494Z,95500.92
2019-02-26T10:28:13.676Z,95489.98
2019-02-26T10:30:41.047Z,95488.31
2019-02-26T10:33:03.504Z,95483.90
2019-02-26T10:35:33.237Z,95483.90
2019-02-26T10:37:57.077Z,95485.45
2019-02-26T10:40:21.931Z,95474.31
2019-02-26T10:42:47.999Z,95470.81
2019-02-26T10:45:13.968Z,95462.72
2019-02-26T10:47:39.981Z,95467.92
2019-02-26T10:50:09.891Z,95449.10
2019-02-26T10:52:34.080Z,95443.89
2019-02-26T10:55:00.148Z,95434.38
2019-02-26T10:57:28.523Z,95438.76
2019-02-26T10:59:52.228Z,95433.05
2019-02-26T11:02:20.644Z,95403.36
2019-02-26T11:04:46.728Z,95413.47
2019-02-26T11:07:11.618Z,95411.19
2019-02-26T11:09:36.422Z,95396.06
2019-02-26T11:12:05.238Z,95400.66
2019-02-26T11:14:28.500Z,95384.58
2019-02-26T11:16:54.512Z,95370.77
2019-02-26T11:19:20.518Z,95366.14
2019-02-26T11:21:50.683Z,95371.88
2019-02-26T11:24:14.760Z,95361.84
2019-02-26T11:26:41.417Z,95359.29
2019-02-26T11:29:07.342Z,95346.06
2019-02-26T11:31:37.002Z,95340.55
2019-02-26T11:34:04.021Z,95331.42
2019-02-26T11:36:30.404Z,95317.62
2019-02-26T11:38:54.520Z,95312.71
2019-02-26T11:41:20.551Z,95298.16
2019-02-26T11:43:46.550Z,95305.75
2019-02-26T11:46:12.570Z,95301.07
2019-02-26T11:48:38.671Z,95302.81
2019-02-26T11:51:04.605Z,95310.22
2019-02-26T11:53:30.640Z,95303.52
2019-02-26T11:55:57.379Z,95302.04
2019-02-26T11:58:24.273Z,95299.23
2019-02-26T12:00:50.675Z,95301.29
2019-02-26T12:03:14.635Z,95298.71
2019-02-26T12:05:41.777Z,95303.73
2019-02-26T12:08:06.638Z,95302.28
2019-02-26T12:10:35.026Z,95301.40
2019-02-26T12:13:00.026Z,95281.83
2019-02-26T12:15:24.674Z,95287.77
2019-02-26T12:17:51.808Z,95269.13
2019-02-26T12:20:17.700Z,95266.27
2019-02-26T12:22:44.708Z,95258.78
2019-02-26T12:25:11.050Z,95256.54
2019-02-26T12:27:36.213Z,95249.97
2019-02-26T12:30:00.730Z,95247.42
2019-02-26T12:32:28.963Z,95233.81
2019-02-26T12:34:52.740Z,95237.27
2019-02-26T12:37:18.745Z,95226.12
2019-02-26T12:39:47.509Z,95230.00
2019-02-26T12:42:13.453Z,95232.86
2019-02-26T12:44:39.424Z,95220.36
2019-02-26T12:47:02.756Z,95220.97
2019-02-26T12:49:29.395Z,95209.72
2019-02-26T12:51:56.770Z,95219.75
2019-02-26T12:54:20.924Z,95216.06
2019-02-26T12:56:48.817Z,95207.78
2019-02-26T12:59:12.920Z,95204.70
2019-02-26T13:01:40.818Z,95184.33
2019-02-26T13:04:06.098Z,95182.88
2019-02-26T13:06:31.051Z,95182.08
2019-02-26T13:08:57.062Z,95190.76
2019-02-26T13:11:24.970Z,95173.96
2019-02-26T13:13:52.337Z,95166.81
2019-02-26T13:16:15.048Z,95159.32
2019-02-26T13:18:41.062Z,95159.14
2019-02-26T13:21:12.690Z,95158.19
2019-02-26T13:23:33.089Z,95144.70
2019-02-26T13:25:59.110Z,95121.05
2019-02-26T13:28:29.588Z,95134.55
2019-02-26T13:30:51.124Z,95121.47
2019-02-26T13:33:18.198Z,95128.73
2019-02-26T13:35:46.738Z,95127.59
2019-02-26T13:38:09.199Z,95131.89
2019-02-26T13:40:38.442Z,95117.75
2019-02-26T13:45:27.225Z,95107.44
2019-02-26T13:48:00.730Z,95099.54
2019-02-26T13:50:19.272Z,95099.24
2019-02-26T13:52:45.276Z,95090.23
2019-02-26T13:55:11.277Z,95092.67
2019-02-26T13:57:37.270Z,95101.48
2019-02-26T14:00:03.272Z,95090.13
2019-02-26T14:02:29.385Z,95083.56
2019-02-26T14:04:55.379Z,95099.02
2019-02-26T14:07:21.439Z,95093.70
2019-02-26T14:09:47.443Z,95071.70
2019-02-26T14:12:13.439Z,95063.19
2019-02-26T14:14:39.441Z,95063.72
2019-02-26T14:17:05.458Z,95061.85
2019-02-26T14:19:31.464Z,95056.73
2019-02-26T14:21:57.487Z,95055.20
2019-02-26T14:24:24.463Z,95051.83
2019-02-26T14:26:49.483Z,95037.59
2019-02-26T14:29:15.498Z,95027.86
2019-02-26T14:31:41.524Z,95039.62
2019-02-26T14:34:07.520Z,95039.53
2019-02-26T14:36:33.552Z,95039.63
2019-02-26T14:38:59.559Z,95036.77
2019-02-26T14:41:25.559Z,95020.73
2019-02-26T14:43:51.612Z,95032.09
2019-02-26T14:46:17.623Z,95026.56
2019-02-26T14:48:43.629Z,95023.07
2019-02-26T14:51:09.633Z,95019.50
2019-02-26T14:53:35.628Z,95015.00
2019-02-26T14:56:01.635Z,95024.02
2019-02-26T14:58:27.648Z,95011.45
2019-02-26T15:00:57.695Z,95001.52
2019-02-26T15:03:19.642Z,94986.46
2019-02-26T15:05:45.733Z,94997.11
2019-02-26T15:08:11.737Z,94984.41
2019-02-26T15:10:37.722Z,94990.23
2019-02-26T15:13:03.728Z,94971.91
2019-02-26T15:15:29.751Z,94977.84
2019-02-26T15:17:55.751Z,94973.14
2019-02-26T15:20:21.768Z,94959.21
2019-02-26T15:22:47.765Z,94961.66
2019-02-26T15:25:13.783Z,94951.55
2019-02-26T15:27:39.830Z,94954.09
2019-02-26T15:30:05.820Z,94952.46
2019-02-26T15:32:31.917Z,94938.86
2019-02-26T15:34:57.916Z,94940.39
2019-02-26T15:37:23.917Z,94941.19
2019-02-26T15:39:51.302Z,94949.29
2019-02-26T15:42:15.918Z,94952.75
2019-02-26T15:44:41.951Z,94963.39
2019-02-26T15:47:09.239Z,94966.88
2019-02-26T15:49:35.824Z,94975.68
2019-02-26T15:51:59.972Z,94974.77
2019-02-26T15:54:27.322Z,94972.72
2019-02-26T15:56:51.982Z,94978.63
2019-02-26T15:59:18.383Z,94981.50
2019-02-26T16:01:44.388Z,94987.02
2019-02-26T16:04:10.390Z,94991.02
2019-02-26T16:06:36.460Z,94998.20
2019-02-26T16:09:02.460Z,94997.37
2019-02-26T16:11:28.464Z,94989.47
2019-02-26T16:13:54.476Z,95001.86
2019-02-26T16:16:20.476Z,95007.59
2019-02-26T16:18:46.480Z,94999.11
2019-02-26T16:21:18.499Z,94994.29
2019-02-26T16:23:41.553Z,94988.47
2019-02-26T16:26:08.114Z,94987.64
2019-02-26T16:28:37.767Z,94989.88
2019-02-26T16:31:07.741Z,94992.87
2019-02-26T16:33:56.587Z,95005.77
2019-02-26T16:36:23.170Z,95000.53
2019-02-26T16:38:51.402Z,95014.86
2019-02-26T16:41:15.836Z,94980.79
2019-02-26T16:43:42.512Z,94982.36
2019-02-26T16:46:09.158Z,94978.37
2019-02-26T16:48:35.912Z,94980.23
2019-02-26T16:51:02.124Z,94981.67
2019-02-26T16:53:34.286Z,95026.20
2019-02-26T16:56:00.635Z,95025.81
2019-02-26T16:58:26.793Z,95035.30
2019-02-26T17:00:53.165Z,95041.22
2019-02-26T17:03:19.158Z,95041.75
2019-02-26T17:05:47.270Z,95042.88
2019-02-26T17:08:11.186Z,95046.52
2019-02-26T17:10:37.203Z,95052.05
2019-02-26T17:13:03.219Z,95053.58
2019-02-26T17:15:29.226Z,95054.61
2019-02-26T17:17:55.226Z,95058.61
2019-02-26T17:20:22.484Z,95053.50
2019-02-26T17:22:47.296Z,95053.20
2019-02-26T17:25:13.319Z,95054.63
2019-02-26T17:27:39.652Z,95059.73
2019-02-26T17:30:05.316Z,95056.24
2019-02-26T17:32:31.318Z,95049.59
2019-02-26T17:34:57.332Z,95054.13
2019-02-26T17:37:23.341Z,95052.05
2019-02-26T17:39:49.351Z,95045.81
2019-02-26T17:42:15.614Z,95049.39
2019-02-26T17:44:41.359Z,95047.55
2019-02-26T17:47:07.367Z,95060.68
2019-02-26T17:49:33.667Z,95052.39
2019-02-26T17:51:59.570Z,95059.34
2019-02-26T17:54:25.574Z,95062.33
2019-02-26T17:56:51.599Z,95059.16
2019-02-26T17:59:17.595Z,95065.61
2019-02-26T18:01:43.596Z,95059.25
2019-02-26T18:04:09.598Z,95054.64
2019-02-26T18:06:35.604Z,95051.78
2019-02-26T18:09:02.551Z,95055.78
2019-02-26T18:11:27.608Z,95053.75
2019-02-26T18:13:53.635Z,95051.19
2019-02-26T18:16:19.661Z,95051.41
2019-02-26T18:18:45.660Z,95047.91
2019-02-26T18:21:11.664Z,95057.97
2019-02-26T18:23:38.294Z,95048.64
2019-02-26T18:26:03.852Z,95044.73
2019-02-26T18:28:29.850Z,95049.55
2019-02-26T18:30:55.856Z,95057.96
2019-02-26T18:33:21.856Z,95058.76
2019-02-26T18:35:47.872Z,95058.16
2019-02-26T18:38:13.867Z,95061.31
2019-02-26T18:40:39.903Z,95066.44
2019-02-26T18:43:06.530Z,95063.48
2019-02-26T18:45:32.532Z,95051.40
2019-02-26T18:47:58.543Z,95038.17
2019-02-26T18:50:25.819Z,95039.80
2019-02-26T18:52:50.543Z,95039.00
2019-02-26T18:55:16.540Z,95021.99
2019-02-26T18:57:43.686Z,95017.78
2019-02-26T19:00:08.617Z,95016.98
2019-02-26T19:02:36.024Z,95011.76
2019-02-26T19:05:00.626Z,95011.03
2019-02-26T19:07:26.631Z,95008.67
2019-02-26T19:09:52.633Z,95025.14
2019-02-26T19:12:18.687Z,95030.88
2019-02-26T19:14:44.647Z,95041.75
2019-02-26T19:17:10.638Z,95052.93
2019-02-26T19:19:36.663Z,95049.64
2019-02-26T19:22:02.667Z,95061.84
2019-02-26T19:24:28.667Z,95068.69
2019-02-26T19:26:54.673Z,95071.73
2019-02-26T19:29:20.668Z,95076.55
2019-02-26T19:31:46.666Z,95089.25
2019-02-26T19:34:12.663Z,95076.88
2019-02-26T19:36:38.704Z,95076.34
2019-02-26T19:39:04.737Z,95069.28
2019-02-26T19:41:30.782Z,95081.88
2019-02-26T19:43:57.525Z,95081.88
2019-02-26T19:46:22.744Z,95084.04
2019-02-26T19:48:48.742Z,95083.42
2019-02-26T19:51:14.867Z,95092.44
2019-02-26T19:53:40.875Z,95088.64
2019-02-26T19:56:06.877Z,95078.80
2019-02-26T19:58:32.878Z,95072.05
2019-02-26T20:00:58.936Z,95068.75
2019-02-26T20:03:24.941Z,95061.59
2019-02-26T20:05:50.936Z,95064.47
2019-02-26T20:08:16.931Z,95059.97
2019-02-26T20:10:42.964Z,95058.10
2019-02-26T20:13:12.534Z,95054.64
2019-02-26T20:15:34.997Z,95051.86
2019-02-26T20:18:00.962Z,95052.48
2019-02-26T20:20:27.012Z,95046.32
2019-02-26T20:22:53.011Z,95045.11
2019-02-26T20:25:19.009Z,95053.52
2019-02-26T20:27:45.017Z,95050.83
2019-02-26T20:30:12.395Z,95052.38
2019-02-26T20:32:37.043Z,95048.67
2019-02-26T20:35:03.044Z,95048.79
2019-02-26T20:37:29.078Z,95049.50
2019-02-26T20:39:55.071Z,95056.58
2019-02-26T20:42:21.068Z,95057.78
2019-02-26T20:44:47.067Z,95062.19
2019-02-26T20:47:13.076Z,95068.22
2019-02-26T20:49:39.067Z,95071.70
2019-02-26T20:52:05.101Z,95071.78
2019-02-26T20:54:32.772Z,95076.11
2019-02-26T20:56:57.105Z,95082.09
2019-02-26T20:59:23.129Z,95080.69
2019-02-26T21:01:49.602Z,95083.55
2019-02-26T21:04:15.138Z,95079.14
2019-02-26T21:06:41.131Z,95077.19
2019-02-26T21:09:07.726Z,95072.23
2019-02-26T21:11:33.129Z,95076.97
2019-02-26T21:13:59.182Z,95073.60
2019-02-26T21:16:25.176Z,95076.38
2019-02-26T21:18:51.168Z,95072.97
2019-02-26T21:21:17.172Z,95069.80
2019-02-26T21:23:43.163Z,95071.25
2019-02-26T21:26:09.191Z,95075.63
2019-02-26T21:28:35.192Z,95072.77
2019-02-26T21:31:01.191Z,95074.91
2019-02-26T21:33:30.612Z,95076.78
2019-02-26T21:35:54.358Z,95082.68
2019-02-26T21:38:19.196Z,95077.49
2019-02-26T21:40:48.735Z,95071.13
2019-02-26T21:43:11.224Z,95060.89
2019-02-26T21:45:37.220Z,95066.12
2019-02-26T21:48:03.360Z,95062.52
2019-02-26T21:50:29.215Z,95067.14
2019-02-26T21:53:02.225Z,95059.06
2019-02-26T21:55:21.225Z,95050.05
2019-02-26T21:57:47.226Z,95041.42
2019-02-26T22:00:13.232Z,95042.88
2019-02-26T22:02:39.239Z,95048.62
2019-02-26T22:05:05.835Z,95056.59
2019-02-26T22:07:31.237Z,95054.44
2019-02-26T22:09:57.236Z,95057.22
2019-02-26T22:12:24.205Z,95055.69
2019-02-26T22:14:49.234Z,95062.34
2019-02-26T22:17:15.232Z,95071.32
2019-02-26T22:19:41.235Z,95076.95
2019-02-26T22:22:07.226Z,95068.44
2019-02-26T22:24:33.232Z,95069.89
2019-02-26T22:27:00.099Z,95069.39
2019-02-26T22:29:25.270Z,95067.53
2019-02-26T22:31:51.253Z,95063.32
2019-02-26T22:34:19.018Z,95057.61
2019-02-26T22:36:43.247Z,95049.93
2019-02-26T22:39:09.245Z,95051.67
2019-02-26T22:41:35.658Z,95057.20
2019-02-26T22:44:01.255Z,95058.83
2019-02-26T22:46:27.256Z,95057.61
2019-02-26T22:48:53.270Z,95060.27
2019-02-26T22:51:19.273Z,95067.23
2019-02-26T22:53:45.271Z,95065.80
2019-02-26T22:56:11.267Z,95065.27
2019-02-26T22:58:37.265Z,95063.73
2019-02-26T23:01:03.275Z,95064.47
2019-02-26T23:03:29.265Z,95065.89
2019-02-26T23:05:58.806Z,95062.11
2019-02-26T23:08:21.286Z,95064.77
2019-02-26T23:10:47.286Z,95070.59
2019-02-26T23:13:13.284Z,95069.59
2019-02-26T23:15:39.282Z,95059.86
2019-02-26T23:18:05.284Z,95056.86
2019-02-26T23:20:31.279Z,95056.86
2019-02-26T23:22:57.285Z,95054.62
2019-02-26T23:25:23.274Z,95054.73
2019-02-26T23:27:49.348Z,95052.88
2019-02-26T23:30:15.273Z,95051.95
2019-02-26T23:32:41.278Z,95051.88
2019-02-26T23:35:08.757Z,95061.27
2019-02-26T23:37:34.627Z,95071.62
2019-02-26T23:39:59.335Z,95074.78
2019-02-26T23:42:25.336Z,95075.11
2019-02-26T23:44:51.597Z,95084.61
2019-02-26T23:47:17.336Z,95081.95
2019-02-26T23:49:44.848Z,95079.60
2019-02-26T23:52:09.334Z,95088.80
2019-02-26T23:54:39.734Z,95093.20
2019-02-26T23:57:01.344Z,95093.13
2019-02-26T23:59:27.340Z,95098.23
